EBBR

Brussels Airport

Brussels, Belgium
METAR EBBR 181050Z 25008KT 9000 -RA BKN018 18/15 Q1021 NOSIG
Observed Flight Rules
Jun-18 @ 10:50 UTC (18 minutes ago) Marginal Visual Flight Rules
Wind Visibility Clouds Conditions
250° at 8 knots 8,996 meters
  • Broken at 1,800' AGL
  • Light Rain
Temperatures Readings
Current 18°C / 64°F
Dewpoint 15°C / 59°F
Humidity 83%
Altimeter 30.15" Hg
Pressure 1021 hPa
Elevation 58
METAR EBBR 181050Z 25008KT 9000 -RA BKN018 18/15 Q1021 NOSIG
Observed Flight Rules
Jun-18 @ 10:50 UTC
(18 minutes ago)
MVFR
Wind Visibility
250° at 8 knots 8,996 meters
Clouds
  • Broken at 1,800' AGL
Conditions
  • Light Rain
Temperature Dewpoint
18°C / 64°F 15°C / 59°F
Humidity Altimeter Pressure
83% 30.15" Hg 1021 hPa